Time;durP1;ratioP1;P1;durP2;ratioP2;P2;SDS_P1;SDS_P2;PMS_P1;PMS_P2;Temp;Humidity;BMP_temperature;BMP_pressure;BME280_temperature;BME280_humidity;BME280_pressure;Samples;Min_cycle;Max_cycle;Signal;HPM_P1;HPM_P2
2022/05/02 00:00:07;;;;;;;9.38;5.20;;;;;;;7.53;100.00;96847.47;4961714;28;20043;-73
2022/05/02 00:02:34;;;;;;;9.43;4.78;;;;;;;7.42;100.00;96834.06;4965609;28;20039;-73
2022/05/02 00:04:59;;;;;;;10.38;5.05;;;;;;;7.24;100.00;96837.50;4978498;28;20557;-73
2022/05/02 00:07:25;;;;;;;9.65;4.90;;;;;;;7.16;100.00;96841.25;4963621;28;20106;-73
2022/05/02 00:09:50;;;;;;;9.55;4.85;;;;;;;7.22;100.00;96831.56;4964554;28;20049;-75
2022/05/02 00:12:16;;;;;;;9.90;5.20;;;;;;;7.21;100.00;96838.75;4963618;28;20089;-73
2022/05/02 00:14:41;;;;;;;9.75;5.07;;;;;;;7.19;100.00;96832.84;4980140;28;20125;-74
2022/05/02 00:17:07;;;;;;;13.55;5.18;;;;;;;7.15;100.00;96830.81;4977480;28;20134;-73
2022/05/02 00:19:32;;;;;;;9.90;5.07;;;;;;;7.12;100.00;96823.28;4962508;28;20066;-74
2022/05/02 00:21:58;;;;;;;11.70;4.85;;;;;;;7.12;100.00;96828.59;4964426;28;20508;-73
2022/05/02 00:24:23;;;;;;;11.00;5.15;;;;;;;7.11;100.00;96816.31;4976521;28;20061;-73
2022/05/02 00:26:49;;;;;;;8.27;5.22;;;;;;;7.22;100.00;96826.25;4962219;28;20054;-72
2022/05/02 00:29:14;;;;;;;7.28;4.28;;;;;;;7.18;100.00;96825.88;4960371;28;20140;-72
2022/05/02 00:31:40;;;;;;;10.30;5.07;;;;;;;7.02;100.00;96815.78;4961435;28;20046;-73
2022/05/02 00:34:06;;;;;;;10.27;5.07;;;;;;;7.10;100.00;96812.03;4961361;28;20512;-73
2022/05/02 00:36:31;;;;;;;14.18;5.00;;;;;;;7.03;100.00;96808.63;4960960;28;20118;-73
2022/05/02 00:38:57;;;;;;;8.80;4.80;;;;;;;7.21;100.00;96808.66;4961363;28;20043;-73
2022/05/02 00:41:23;;;;;;;11.90;6.07;;;;;;;7.34;100.00;96816.53;4960777;28;20101;-73
2022/05/02 00:43:48;;;;;;;9.43;5.07;;;;;;;7.40;100.00;96807.66;4961676;28;20054;-73
2022/05/02 00:46:22;;;;;;;7.82;4.82;;;;;;;7.42;100.00;96810.09;4961074;28;20054;-75
2022/05/02 00:48:48;;;;;;;8.57;4.90;;;;;;;7.42;100.00;96818.09;4964212;28;20081;-73
2022/05/02 00:51:15;;;;;;;8.85;5.13;;;;;;;7.43;100.00;96809.88;4960937;28;20106;-73
2022/05/02 00:53:41;;;;;;;9.23;4.90;;;;;;;7.45;100.00;96813.13;4962525;28;20047;-73
2022/05/02 00:56:08;;;;;;;9.07;5.00;;;;;;;7.34;100.00;96808.53;4977243;28;20057;-74
2022/05/02 00:58:36;;;;;;;12.50;5.07;;;;;;;7.37;100.00;96804.63;4961874;28;20174;-73
2022/05/02 01:01:04;;;;;;;14.40;4.78;;;;;;;7.37;100.00;96808.09;4962167;28;20042;-74
2022/05/02 01:03:31;;;;;;;10.32;5.57;;;;;;;7.29;100.00;96808.38;4964960;28;20073;-73
2022/05/02 01:08:42;;;;;;;8.68;4.88;;;;;;;6.94;100.00;96811.56;4962462;28;20478;-73
2022/05/02 01:11:08;;;;;;;12.00;5.50;;;;;;;6.84;100.00;96810.38;4962308;28;20042;-74
2022/05/02 01:13:45;;;;;;;11.52;5.78;;;;;;;6.73;100.00;96803.94;4962995;28;20135;-73
2022/05/02 01:16:29;;;;;;;15.88;6.18;;;;;;;6.60;100.00;96799.50;4962566;28;20637;-73
2022/05/02 01:18:59;;;;;;;13.23;6.07;;;;;;;6.58;100.00;96796.25;4961916;28;20317;-73
2022/05/02 01:21:27;;;;;;;14.35;5.88;;;;;;;6.57;100.00;96801.78;4962272;28;20575;-73
2022/05/02 01:23:54;;;;;;;16.08;5.75;;;;;;;6.50;100.00;96803.66;4961846;28;20089;-73
2022/05/02 01:26:21;;;;;;;11.95;6.22;;;;;;;6.57;100.00;96796.47;4959637;28;20046;-73
2022/05/02 01:28:48;;;;;;;14.85;6.07;;;;;;;6.48;100.00;96795.91;4960576;28;20087;-73
2022/05/02 01:31:16;;;;;;;9.93;5.57;;;;;;;6.57;100.00;96796.47;4960189;28;20060;-73
2022/05/02 01:33:42;;;;;;;10.43;4.90;;;;;;;6.48;100.00;96795.91;4960865;28;20042;-73
2022/05/02 01:36:08;;;;;;;13.10;4.97;;;;;;;6.42;100.00;96781.63;4960477;28;20190;-73
2022/05/02 01:38:35;;;;;;;11.55;5.15;;;;;;;6.36;100.00;96795.75;4961060;28;20379;-73
2022/05/02 01:41:05;;;;;;;10.15;5.22;;;;;;;6.24;100.00;96788.69;4959550;28;20038;-73
2022/05/02 01:43:33;;;;;;;8.18;5.20;;;;;;;6.28;100.00;96793.34;4961345;28;20065;-73
2022/05/02 01:46:00;;;;;;;8.00;5.03;;;;;;;6.35;100.00;96788.00;4960301;28;20350;-73
2022/05/02 01:48:27;;;;;;;8.45;4.60;;;;;;;6.38;100.00;96791.06;4960058;28;20089;-73
2022/05/02 01:50:52;;;;;;;8.55;5.18;;;;;;;6.39;100.00;96786.56;4959683;28;20043;-73
2022/05/02 01:53:18;;;;;;;12.35;5.32;;;;;;;6.40;100.00;96785.53;4961094;28;20558;-73
2022/05/02 01:55:44;;;;;;;10.55;5.05;;;;;;;6.41;100.00;96785.31;4960974;28;20104;-74
2022/05/02 01:58:10;;;;;;;7.57;4.97;;;;;;;6.38;100.00;96777.78;4960306;28;20055;-73
2022/05/02 02:00:36;;;;;;;10.38;5.05;;;;;;;6.39;100.00;96786.56;4976560;28;20046;-73
2022/05/02 02:03:01;;;;;;;11.45;5.25;;;;;;;6.46;100.00;96786.50;4960343;28;20117;-74
2022/05/02 02:08:11;;;;;;;16.98;6.40;;;;;;;6.55;100.00;96775.41;4960870;28;20030;-73
2022/05/02 02:10:36;;;;;;;16.60;6.72;;;;;;;6.62;100.00;96783.34;4958885;28;20043;-73
2022/05/02 02:13:02;;;;;;;11.80;5.28;;;;;;;6.80;100.00;96785.25;4974692;28;20038;-73
2022/05/02 02:15:27;;;;;;;11.20;5.60;;;;;;;6.93;100.00;96782.50;4953955;28;20136;-74
2022/05/02 02:17:53;;;;;;;8.25;4.75;;;;;;;7.03;100.00;96776.69;4959448;28;20042;-74
2022/05/02 02:20:18;;;;;;;8.60;5.00;;;;;;;7.13;100.00;96775.16;4960507;28;20049;-72
2022/05/02 02:22:44;;;;;;;11.00;4.95;;;;;;;7.23;100.00;96772.78;4961753;28;20421;-73
2022/05/02 02:25:10;;;;;;;11.70;4.97;;;;;;;7.32;100.00;96776.00;4961493;28;20054;-73
2022/05/02 02:27:35;;;;;;;9.23;5.00;;;;;;;7.37;100.00;96773.47;4962441;28;20034;-73
2022/05/02 02:30:01;;;;;;;7.35;4.55;;;;;;;7.46;100.00;96774.81;4959754;28;20391;-74
2022/05/02 02:32:27;;;;;;;9.20;4.95;;;;;;;7.53;100.00;96772.91;4960298;28;20398;-74
2022/05/02 02:34:53;;;;;;;9.30;5.15;;;;;;;7.44;100.00;96762.78;4960976;28;20489;-73
2022/05/02 02:37:19;;;;;;;8.82;5.07;;;;;;;7.43;100.00;96767.28;4960302;28;20094;-73
2022/05/02 02:39:45;;;;;;;8.70;4.60;;;;;;;7.36;100.00;96763.06;4961234;28;20264;-73
2022/05/02 02:42:10;;;;;;;15.30;6.18;;;;;;;7.41;100.00;96768.53;4960863;28;20130;-73
2022/05/02 02:44:36;;;;;;;21.42;7.00;;;;;;;7.48;100.00;96763.97;4961159;28;20110;-74
2022/05/02 02:47:02;;;;;;;18.70;7.80;;;;;;;7.50;100.00;96756.56;4961039;28;20042;-73
2022/05/02 02:49:27;;;;;;;20.13;7.85;;;;;;;7.57;100.00;96751.97;4960495;28;20454;-73
2022/05/02 02:51:53;;;;;;;17.73;7.10;;;;;;;7.65;100.00;96761.53;4960544;28;20073;-73
2022/05/02 02:54:18;;;;;;;13.27;5.35;;;;;;;7.66;100.00;96758.63;4961333;28;20533;-73
2022/05/02 02:56:44;;;;;;;11.40;5.78;;;;;;;7.72;100.00;96755.09;4961955;28;20501;-73
2022/05/02 02:59:10;;;;;;;11.90;6.00;;;;;;;7.74;100.00;96758.34;4958400;28;20051;-73
2022/05/02 03:01:36;;;;;;;10.45;5.30;;;;;;;7.80;100.00;96753.97;4959248;28;20043;-74
2022/05/02 03:06:01;;;;;;;10.68;5.53;;;;;;;7.94;100.00;96752.78;4960799;28;20041;-73
2022/05/02 03:06:47;;;;;;;14.48;6.00;;;;;;;8.03;100.00;96747.94;4963995;28;20452;-74
2022/05/02 03:09:13;;;;;;;7.70;5.15;;;;;;;8.10;100.00;96748.69;4962947;28;20034;-73
2022/05/02 03:11:39;;;;;;;10.55;5.28;;;;;;;8.04;100.00;96737.06;4962571;28;20038;-73
2022/05/02 03:14:04;;;;;;;9.73;5.15;;;;;;;8.08;100.00;96737.41;4961627;28;20038;-73
2022/05/02 03:16:30;;;;;;;14.63;5.65;;;;;;;8.01;100.00;96742.81;4961694;28;20657;-73
2022/05/02 03:18:55;;;;;;;14.25;5.57;;;;;;;7.99;100.00;96742.25;4962541;28;20074;-73
2022/05/02 03:21:20;;;;;;;9.25;5.40;;;;;;;7.94;100.00;96739.44;4963117;28;20034;-73
2022/05/02 03:23:46;;;;;;;11.63;4.85;;;;;;;7.86;100.00;96738.91;4964499;28;20106;-73
2022/05/02 03:26:11;;;;;;;10.75;5.55;;;;;;;7.84;100.00;96736.50;4961430;28;20122;-73
2022/05/02 03:28:37;;;;;;;12.05;5.28;;;;;;;7.79;100.00;96734.50;4962120;28;20064;-73
2022/05/02 03:31:03;;;;;;;14.07;5.97;;;;;;;7.77;100.00;96738.41;4962773;28;20042;-75
2022/05/02 03:33:29;;;;;;;10.88;6.25;;;;;;;7.83;100.00;96737.53;4963116;28;20035;-73
2022/05/02 03:35:54;;;;;;;14.05;5.38;;;;;;;7.88;100.00;96724.34;4963482;28;20044;-73
2022/05/02 03:38:20;;;;;;;13.43;6.35;;;;;;;7.86;100.00;96729.09;4961830;28;20095;-73
2022/05/02 03:40:46;;;;;;;17.38;7.13;;;;;;;7.91;100.00;96731.88;4964488;28;20114;-73
2022/05/02 03:43:11;;;;;;;14.45;7.63;;;;;;;7.95;100.00;96726.94;4961804;28;20053;-72
2022/05/02 03:45:37;;;;;;;12.07;7.43;;;;;;;7.98;100.00;96727.28;4959554;28;20046;-73
2022/05/02 03:48:03;;;;;;;15.43;7.50;;;;;;;7.99;100.00;96728.09;4965271;28;20073;-73
2022/05/02 03:50:29;;;;;;;13.88;6.78;;;;;;;7.97;100.00;96724.84;4963814;28;20404;-73
2022/05/02 03:52:54;;;;;;;10.20;6.07;;;;;;;7.95;100.00;96721.59;4963771;28;20042;-73
2022/05/02 03:55:20;;;;;;;10.77;5.28;;;;;;;7.91;100.00;96726.56;4962750;28;20071;-74
2022/05/02 03:57:45;;;;;;;9.82;5.57;;;;;;;7.89;100.00;96727.84;4962736;28;20043;-73
2022/05/02 04:00:11;;;;;;;9.05;5.00;;;;;;;7.78;100.00;96724.06;4961366;28;20045;-74
2022/05/02 04:02:40;;;;;;;9.77;5.40;;;;;;;7.70;100.00;96727.84;4963369;28;20047;-74
2022/05/02 04:05:06;;;;;;;9.13;5.43;;;;;;;7.59;100.00;96725.13;4963248;28;20498;-72
2022/05/02 04:07:32;;;;;;;15.15;6.72;;;;;;;7.62;100.00;96727.31;4977227;28;20031;-73
2022/05/02 04:09:58;;;;;;;34.28;9.55;;;;;;;7.59;100.00;96730.44;4962616;28;20481;-73
2022/05/02 04:12:24;;;;;;;17.88;6.32;;;;;;;7.54;100.00;96731.09;4962865;28;20030;-74
2022/05/02 04:14:49;;;;;;;12.75;6.28;;;;;;;7.62;100.00;96724.66;4962609;28;20039;-73
2022/05/02 04:17:14;;;;;;;15.02;7.15;;;;;;;7.66;100.00;96731.19;4961612;28;20050;-74
2022/05/02 04:19:42;;;;;;;11.43;6.57;;;;;;;7.63;100.00;96732.47;4962016;28;20038;-73
2022/05/02 04:22:08;;;;;;;13.20;6.70;;;;;;;7.60;100.00;96724.91;4961369;28;20051;-72
2022/05/02 04:24:33;;;;;;;10.32;6.05;;;;;;;7.54;100.00;96731.91;4960901;28;20049;-74
2022/05/02 04:26:59;;;;;;;12.32;6.28;;;;;;;7.58;100.00;96728.81;4975783;28;20050;-74
2022/05/02 04:29:25;;;;;;;9.93;5.78;;;;;;;7.57;100.00;96730.69;4961601;28;20609;-73
2022/05/02 04:31:50;;;;;;;14.65;5.70;;;;;;;7.58;100.00;96739.47;4961070;28;20051;-73
2022/05/02 04:34:16;;;;;;;14.23;6.15;;;;;;;7.49;100.00;96733.63;4964964;28;20130;-73
2022/05/02 04:36:41;;;;;;;12.40;5.88;;;;;;;7.44;100.00;96738.81;4966088;28;20124;-74
2022/05/02 04:39:07;;;;;;;11.43;5.97;;;;;;;7.40;100.00;96738.44;4959805;28;20039;-74
2022/05/02 04:41:32;;;;;;;9.60;5.43;;;;;;;7.35;100.00;96743.63;4963118;28;20043;-74
2022/05/02 04:43:58;;;;;;;12.38;5.72;;;;;;;7.30;100.00;96742.63;4963452;28;20039;-74
2022/05/02 04:46:23;;;;;;;15.68;6.10;;;;;;;7.23;100.00;96740.03;4961326;28;20027;-74
2022/05/02 04:48:49;;;;;;;11.60;5.78;;;;;;;7.20;100.00;96741.31;4961179;28;20046;-74
2022/05/02 04:51:14;;;;;;;13.82;5.82;;;;;;;7.19;100.00;96737.00;4959860;28;20070;-74
2022/05/02 04:53:40;;;;;;;16.77;7.47;;;;;;;7.19;100.00;96738.88;4961041;28;20703;-74
2022/05/02 04:56:05;;;;;;;11.95;6.68;;;;;;;7.26;100.00;96743.09;4960804;28;20129;-74
2022/05/02 04:58:31;;;;;;;13.00;7.10;;;;;;;7.31;100.00;96744.25;4961629;28;20054;-73
2022/05/02 05:00:56;;;;;;;13.43;7.40;;;;;;;7.28;100.00;96747.38;4962210;28;20049;-74
2022/05/02 05:03:22;;;;;;;16.75;7.35;;;;;;;7.30;100.00;96748.78;4959352;28;20130;-74
2022/05/02 05:05:48;;;;;;;15.80;7.50;;;;;;;7.34;100.00;96749.97;4963126;28;20521;-73
2022/05/02 05:08:15;;;;;;;11.60;6.90;;;;;;;7.33;100.00;96747.53;4975697;28;20172;-73
2022/05/02 05:11:08;;;;;;;14.30;6.70;;;;;;;7.31;100.00;96745.06;4961806;28;20588;-74
2022/05/02 05:17:16;;;;;;;10.07;5.63;;;;;;;7.39;100.00;96736.81;4960992;28;20039;-73
2022/05/02 05:19:41;;;;;;;15.90;6.22;;;;;;;7.47;100.00;96741.84;4961548;28;20481;-73
2022/05/02 05:22:34;;;;;;;9.77;6.32;;;;;;;7.56;100.00;96736.22;4976083;28;20125;-73
2022/05/02 05:25:29;;;;;;;9.40;6.30;;;;;;;7.66;100.00;96740.00;4961394;28;20054;-74
2022/05/02 05:28:15;;;;;;;14.55;7.22;;;;;;;7.75;100.00;96745.81;4961419;28;20058;-74
2022/05/02 05:30:44;;;;;;;13.02;6.38;;;;;;;7.76;100.00;96729.63;4975325;28;20057;-74
2022/05/02 05:33:28;;;;;;;12.55;5.65;;;;;;;7.87;100.00;96736.06;4959992;28;20063;-74
2022/05/02 05:35:53;;;;;;;11.82;5.82;;;;;;;7.93;100.00;96732.47;4962182;28;20278;-73
2022/05/02 05:38:30;;;;;;;11.93;6.03;;;;;;;8.03;100.00;96742.63;4959408;28;20039;-73
2022/05/02 05:41:25;;;;;;;11.02;5.95;;;;;;;8.13;100.00;96742.06;4961014;28;20104;-74
2022/05/02 05:44:09;;;;;;;13.18;6.47;;;;;;;8.21;100.00;96737.22;4973411;28;20525;-73
2022/05/02 05:46:38;;;;;;;11.32;5.97;;;;;;;8.26;100.00;96736.56;4961379;28;20169;-73
2022/05/02 05:49:28;;;;;;;11.52;6.43;;;;;;;8.38;100.00;96738.25;4959634;28;20049;-73
2022/05/02 05:52:11;;;;;;;11.43;6.50;;;;;;;8.44;100.00;96736.53;4960371;28;20873;-73
2022/05/02 05:55:01;;;;;;;12.57;6.03;;;;;;;8.52;100.00;96733.53;4975258;28;20049;-73
2022/05/02 05:57:35;;;;;;;12.32;5.85;;;;;;;8.56;100.00;96723.19;4961296;28;20442;-73
2022/05/02 06:00:09;;;;;;;13.40;6.60;;;;;;;8.70;100.00;96726.47;4961557;28;20050;-73
2022/05/02 06:02:56;;;;;;;10.30;5.85;;;;;;;8.70;100.00;96739.81;4957001;28;20406;-74
2022/05/02 06:05:23;;;;;;;12.63;6.40;;;;;;;8.77;100.00;96732.53;4957795;28;20627;-73
2022/05/02 06:07:51;;;;;;;12.15;6.22;;;;;;;8.85;100.00;96733.00;4961074;28;20143;-73
2022/05/02 06:10:17;;;;;;;13.55;5.90;;;;;;;8.90;100.00;96735.00;4972904;28;20042;-74
2022/05/02 06:12:45;;;;;;;12.90;5.97;;;;;;;8.90;100.00;96730.47;4959473;28;20056;-73
2022/05/02 06:20:43;;;;;;;9.55;6.00;;;;;;;9.14;100.00;96733.94;4960279;28;20030;-73
2022/05/02 06:23:12;;;;;;;13.18;5.93;;;;;;;9.17;100.00;96738.81;4961989;28;20039;-73
2022/05/02 06:25:37;;;;;;;10.27;6.32;;;;;;;9.29;100.00;96738.00;4959428;28;20276;-74
2022/05/02 06:28:04;;;;;;;9.52;5.93;;;;;;;9.34;100.00;96730.09;4958028;28;20469;-73
2022/05/02 06:30:31;;;;;;;12.50;5.65;;;;;;;9.44;100.00;96741.03;4957268;28;20039;-73
2022/05/02 06:33:02;;;;;;;9.70;5.80;;;;;;;9.48;100.00;96726.94;4959114;28;20078;-73
2022/05/02 06:35:35;;;;;;;10.60;6.07;;;;;;;9.61;100.00;96730.44;4960691;28;20475;-74
2022/05/02 06:38:04;;;;;;;9.18;6.10;;;;;;;9.68;100.00;96734.59;4959195;28;20039;-73
2022/05/02 06:40:36;;;;;;;10.52;6.63;;;;;;;9.80;100.00;96731.06;4962773;28;20205;-73
2022/05/02 06:43:34;;;;;;;10.80;6.07;;;;;;;9.90;100.00;96731.28;4963588;28;20043;-75
2022/05/02 06:46:20;;;;;;;10.02;6.35;;;;;;;9.98;100.00;96730.91;4961828;28;20344;-73
2022/05/02 06:49:10;;;;;;;9.40;5.82;;;;;;;10.04;100.00;96725.44;4963410;28;20149;-74
2022/05/02 06:51:39;;;;;;;11.35;6.60;;;;;;;10.11;100.00;96719.91;4964096;28;20041;-73
2022/05/02 06:54:29;;;;;;;11.80;6.55;;;;;;;10.23;100.00;96723.41;4964287;28;20197;-73
2022/05/02 06:57:32;;;;;;;13.73;5.97;;;;;;;10.33;100.00;96726.25;4962384;28;20118;-73
2022/05/02 07:00:06;;;;;;;11.32;5.80;;;;;;;10.38;100.00;96719.38;4964447;28;20538;-74
2022/05/02 07:03:11;;;;;;;13.32;6.85;;;;;;;10.49;100.00;96723.84;4963031;28;20042;-74
2022/05/02 07:05:48;;;;;;;14.82;6.45;;;;;;;10.63;100.00;96717.13;4963263;28;20042;-75
2022/05/02 07:08:26;;;;;;;11.10;6.05;;;;;;;10.72;100.00;96722.91;4963488;28;20454;-73
2022/05/02 07:10:58;;;;;;;13.38;6.05;;;;;;;10.87;100.00;96723.94;4979144;28;20097;-73
2022/05/02 07:13:40;;;;;;;9.10;5.95;;;;;;;10.98;100.00;96716.91;4975769;28;20046;-73
2022/05/02 07:16:24;;;;;;;20.52;6.43;;;;;;;11.05;100.00;96719.41;4962251;28;20477;-75
2022/05/02 07:19:13;;;;;;;11.07;5.97;;;;;;;11.14;100.00;96717.94;4963234;28;20039;-73
2022/05/02 07:21:55;;;;;;;12.80;6.10;;;;;;;11.18;100.00;96712.91;4963183;28;20339;-73
2022/05/02 07:24:45;;;;;;;13.77;6.43;;;;;;;11.28;100.00;96715.72;4962751;28;20066;-73
2022/05/02 07:27:39;;;;;;;13.30;6.32;;;;;;;11.37;100.00;96707.03;4963794;28;20038;-73
2022/05/02 07:30:06;;;;;;;11.20;6.20;;;;;;;11.48;100.00;96709.84;4961235;28;20057;-73
2022/05/02 07:32:33;;;;;;;10.70;5.70;;;;;;;11.55;100.00;96713.16;4964074;28;20045;-73
2022/05/02 07:34:59;;;;;;;9.30;5.93;;;;;;;11.62;100.00;96714.59;4966158;28;20039;-74
2022/05/02 07:37:25;;;;;;;9.35;5.47;;;;;;;11.68;100.00;96723.50;4963732;28;20039;-74
2022/05/02 07:39:52;;;;;;;13.38;6.57;;;;;;;11.72;100.00;96714.72;4963987;28;20038;-73
2022/05/02 07:42:18;;;;;;;12.77;7.20;;;;;;;11.85;100.00;96728.84;4962671;28;20045;-74
2022/05/02 07:44:47;;;;;;;13.13;7.53;;;;;;;11.84;100.00;96722.69;4964200;28;20038;-73
2022/05/02 07:47:15;;;;;;;12.18;7.05;;;;;;;11.91;100.00;96720.63;4963286;28;20042;-74
2022/05/02 07:49:50;;;;;;;11.88;7.10;;;;;;;12.01;100.00;96722.59;4963498;28;20086;-73
2022/05/02 07:52:23;;;;;;;13.25;7.50;;;;;;;12.11;100.00;96717.34;4962672;28;20039;-73
2022/05/02 07:54:50;;;;;;;12.73;6.95;;;;;;;12.24;100.00;96724.19;4963540;28;20134;-73
2022/05/02 07:57:16;;;;;;;12.82;7.43;;;;;;;12.30;100.00;96711.66;4963792;28;20062;-73
2022/05/02 07:59:46;;;;;;;13.38;7.07;;;;;;;12.41;100.00;96719.53;4963395;28;20082;-74
2022/05/02 08:02:14;;;;;;;12.95;7.53;;;;;;;12.51;100.00;96716.94;4961081;28;20062;-73
2022/05/02 08:04:42;;;;;;;13.15;7.63;;;;;;;12.52;100.00;96723.94;4977336;28;20046;-74
2022/05/02 08:07:19;;;;;;;10.90;6.90;;;;;;;12.62;100.00;96723.22;4961121;28;20049;-73
2022/05/02 08:10:09;;;;;;;10.80;7.18;;;;;;;12.73;100.00;96713.38;4962959;28;20054;-72
2022/05/02 08:12:39;;;;;;;11.15;6.80;;;;;;;12.80;100.00;96703.25;4975500;28;20054;-72
2022/05/02 08:15:23;;;;;;;10.30;7.28;;;;;;;12.95;100.00;96716.78;4932197;28;20160;-73
2022/05/02 08:18:11;;;;;;;12.05;7.45;;;;;;;13.12;100.00;96711.25;4975743;28;20057;-74
2022/05/02 08:20:47;;;;;;;11.80;7.10;;;;;;;13.40;100.00;96710.16;4962565;28;20050;-73
2022/05/02 08:27:16;;;;;;;16.38;7.35;;;;;;;13.94;100.00;96715.25;4963383;28;20304;-74
2022/05/02 08:30:02;;;;;;;12.68;7.40;;;;;;;14.22;100.00;96704.00;4898993;29;20067;-74
2022/05/02 08:32:41;;;;;;;14.93;7.93;;;;;;;14.38;100.00;96706.75;4897028;29;20078;-74
2022/05/02 08:35:09;;;;;;;13.02;7.53;;;;;;;14.68;100.00;96706.00;4942222;28;20058;-73
2022/05/02 08:37:52;;;;;;;16.17;8.07;;;;;;;14.72;100.00;96713.31;4958140;28;20043;-73
2022/05/02 08:40:24;;;;;;;15.60;7.65;;;;;;;14.72;100.00;96707.91;4960487;28;20129;-73
2022/05/02 08:42:53;;;;;;;15.98;8.10;;;;;;;14.57;100.00;96707.09;4962080;28;20035;-74
2022/05/02 08:45:33;;;;;;;16.02;8.43;;;;;;;14.48;100.00;96710.31;4960354;28;20042;-72
2022/05/02 08:48:11;;;;;;;11.30;7.95;;;;;;;14.46;100.00;96704.38;4964829;28;20047;-72
2022/05/02 08:50:46;;;;;;;13.20;8.00;;;;;;;14.75;100.00;96699.28;4977232;28;20047;-72
2022/05/02 08:53:14;;;;;;;13.15;8.00;;;;;;;14.89;100.00;96699.56;4961826;28;20093;-72
2022/05/02 08:55:58;;;;;;;14.57;8.38;;;;;;;15.18;94.84;96699.81;4961435;28;20061;-74
2022/05/02 08:58:55;;;;;;;13.40;7.20;;;;;;;15.38;100.00;96698.97;4974701;28;20072;-72
2022/05/02 09:01:23;;;;;;;13.70;7.65;;;;;;;15.55;99.04;96706.72;4975118;28;20442;-73
2022/05/02 09:04:21;;;;;;;15.55;9.05;;;;;;;15.72;99.50;96703.75;4961650;28;20034;-74
2022/05/02 09:07:09;;;;;;;12.05;7.53;;;;;;;15.49;98.69;96700.56;4976335;28;20773;-73
2022/05/02 09:09:53;;;;;;;12.90;8.07;;;;;;;15.72;98.81;96707.28;4962620;28;20418;-73
2022/05/02 09:12:40;;;;;;;12.70;7.68;;;;;;;15.73;99.35;96700.78;4962650;28;20077;-72
2022/05/02 09:15:30;;;;;;;12.88;7.80;;;;;;;15.92;97.66;96700.97;4943303;28;20620;-72
2022/05/02 09:18:20;;;;;;;12.48;7.38;;;;;;;16.19;99.74;96703.31;4962531;28;20518;-73
2022/05/02 09:20:56;;;;;;;13.30;8.25;;;;;;;16.47;93.86;96693.66;4960583;28;20098;-74
2022/05/02 09:24:02;;;;;;;14.73;8.05;;;;;;;16.76;95.04;96695.66;4974410;28;20031;-72
2022/05/02 09:26:42;;;;;;;12.38;7.47;;;;;;;16.95;95.02;96683.88;4949013;28;20046;-73
2022/05/02 09:29:07;;;;;;;13.25;8.23;;;;;;;16.97;92.20;96687.13;4958907;28;20216;-73
2022/05/02 09:32:00;;;;;;;12.82;7.53;;;;;;;17.54;90.51;96690.88;4960197;28;20401;-72
2022/05/02 09:34:44;;;;;;;18.63;8.13;;;;;;;17.78;90.39;96690.13;4962093;28;20058;-74
2022/05/02 09:37:54;;;;;;;13.10;7.50;;;;;;;17.85;86.89;96685.16;4960251;28;20387;-73
2022/05/02 09:40:33;;;;;;;15.75;7.68;;;;;;;17.71;78.70;96690.44;4974840;28;20035;-73
2022/05/02 09:49:33;;;;;;;12.25;7.60;;;;;;;17.41;84.63;96691.56;4961575;28;20133;-72
2022/05/02 09:49:37;;;;;;;12.32;8.05;;;;;;;17.46;75.85;96682.59;4959557;28;20050;-72
2022/05/02 09:52:13;;;;;;;16.17;7.50;;;;;;;18.31;80.05;96687.28;4958934;28;20046;-75
2022/05/02 09:58:04;;;;;;;16.85;7.78;;;;;;;18.76;69.91;96677.69;4961585;28;20383;-73
2022/05/02 10:01:07;;;;;;;12.38;7.68;;;;;;;18.40;74.94;96680.09;4976242;28;20069;-74
2022/05/02 10:03:58;;;;;;;15.13;8.57;;;;;;;18.26;68.71;96681.91;4977187;28;20061;-72
2022/05/02 10:06:46;;;;;;;14.50;8.00;;;;;;;18.25;69.80;96680.31;4960071;28;20050;-74
2022/05/02 10:09:40;;;;;;;16.20;8.05;;;;;;;18.81;69.83;96677.59;4962465;28;20093;-72
2022/05/02 10:12:18;;;;;;;16.98;7.93;;;;;;;19.40;68.45;96667.09;4960621;28;20314;-73
2022/05/02 10:14:56;;;;;;;12.07;7.60;;;;;;;19.00;64.56;96677.56;4935838;28;20345;-73
2022/05/02 10:17:53;;;;;;;11.38;8.38;;;;;;;18.71;72.10;96676.97;4960762;28;20546;-72
2022/05/02 10:20:20;;;;;;;18.17;8.55;;;;;;;18.68;61.06;96664.81;4960675;28;20503;-72
2022/05/02 10:23:12;;;;;;;16.77;9.60;;;;;;;18.63;65.45;96672.97;4962130;28;20137;-72
2022/05/02 10:25:37;;;;;;;;;;;;;;;18.48;67.80;96675.94;4961634;28;20287;-72
2022/05/02 10:28:40;;;;;;;16.40;8.35;;;;;;;18.84;61.85;96665.38;4961526;28;20316;-74
2022/05/02 10:31:13;;;;;;;15.35;8.05;;;;;;;18.62;55.53;96661.34;4960390;28;20070;-72
2022/05/02 10:34:01;;;;;;;17.30;8.70;;;;;;;18.42;59.10;96664.34;4617931;28;10000436;-73
2022/05/02 10:36:55;;;;;;;13.17;7.97;;;;;;;18.96;68.24;96660.28;4616183;28;9999736;-73
2022/05/02 10:39:44;;;;;;;13.82;7.60;;;;;;;19.56;69.63;96654.84;4957597;28;20472;-73
2022/05/02 10:42:13;;;;;;;12.65;8.20;;;;;;;19.59;57.44;96653.47;4958244;28;20169;-72
2022/05/02 10:45:02;;;;;;;16.65;8.38;;;;;;;19.68;55.15;96655.19;4958132;28;20319;-73
2022/05/02 10:47:41;;;;;;;11.88;6.88;;;;;;;20.09;52.22;96654.34;4960209;28;20043;-72
2022/05/02 10:50:25;;;;;;;14.02;7.40;;;;;;;20.57;56.89;96648.41;4972164;28;20075;-74
2022/05/02 10:53:01;;;;;;;11.30;7.53;;;;;;;20.40;59.73;96653.69;4960552;28;20042;-72
2022/05/02 10:55:32;;;;;;;13.15;7.68;;;;;;;19.51;63.89;96644.09;4958478;28;20049;-74
2022/05/02 10:58:02;;;;;;;13.30;8.07;;;;;;;19.39;55.16;96641.09;4960962;28;20054;-73
2022/05/02 11:00:28;;;;;;;13.80;8.32;;;;;;;18.30;58.91;96643.13;4958638;28;20049;-74
2022/05/02 11:03:12;;;;;;;11.80;7.28;;;;;;;18.50;61.93;96635.78;4958891;28;20086;-75
2022/05/02 11:06:08;;;;;;;14.52;7.93;;;;;;;18.24;73.56;96632.66;4959597;28;20047;-72
2022/05/02 11:08:57;;;;;;;12.60;7.75;;;;;;;18.91;62.20;96625.13;4959702;28;20608;-72
2022/05/02 11:11:50;;;;;;;14.45;7.40;;;;;;;19.51;62.26;96630.53;4957037;28;20498;-74
2022/05/02 11:14:39;;;;;;;13.18;6.80;;;;;;;22.99;42.07;96621.19;4932944;28;20035;-75
2022/05/02 11:17:41;;;;;;;9.90;6.80;;;;;;;21.92;39.67;96606.22;4956892;28;20046;-73
2022/05/02 11:23:18;;;;;;;13.63;7.22;;;;;;;28.21;31.25;96610.69;4960085;28;20047;-73
2022/05/02 11:26:05;;;;;;;9.65;6.10;;;;;;;30.35;27.98;96601.66;4959285;28;20046;-73
2022/05/02 11:28:48;;;;;;;8.88;5.82;;;;;;;26.33;33.67;96604.53;4962960;28;20162;-73
2022/05/02 11:31:25;;;;;;;9.57;5.70;;;;;;;27.99;30.30;96601.13;4960785;28;20055;-73
2022/05/02 11:34:19;;;;;;;15.60;6.32;;;;;;;24.49;35.92;96617.09;4959476;28;20058;-73
2022/05/02 11:36:51;;;;;;;11.10;6.72;;;;;;;23.30;36.67;96610.84;4960989;28;20093;-74
2022/05/02 11:39:21;;;;;;;11.85;6.75;;;;;;;21.88;43.03;96615.34;4961423;28;20113;-73
2022/05/02 11:41:47;;;;;;;16.30;6.57;;;;;;;21.82;44.46;96608.44;4960795;28;20122;-74
2022/05/02 11:44:13;;;;;;;12.63;7.30;;;;;;;21.66;45.30;96608.88;4961202;28;20555;-74
2022/05/02 11:47:13;;;;;;;11.68;7.40;;;;;;;20.68;46.23;96617.16;4961327;28;20034;-72
2022/05/02 11:49:51;;;;;;;10.18;6.40;;;;;;;20.80;48.75;96609.25;4961896;28;20592;-73
2022/05/02 11:52:36;;;;;;;12.30;6.53;;;;;;;20.54;46.74;96605.53;4961345;28;20117;-73
2022/05/02 11:55:06;;;;;;;12.65;6.35;;;;;;;20.70;50.28;96605.97;4975936;28;20054;-72
2022/05/02 11:57:49;;;;;;;11.90;6.43;;;;;;;21.43;45.73;96593.75;4972577;28;20065;-72
2022/05/02 12:00:16;;;;;;;11.45;7.05;;;;;;;22.14;42.73;96597.16;4960324;28;20533;-72
2022/05/02 12:02:46;;;;;;;9.60;6.03;;;;;;;21.35;43.44;96602.69;4963337;28;20055;-72
2022/05/02 12:05:17;;;;;;;10.90;6.75;;;;;;;21.51;48.80;96600.34;4977162;28;20046;-74
2022/05/02 12:08:06;;;;;;;15.88;7.22;;;;;;;21.36;44.99;96601.56;4963918;28;20050;-72
2022/05/02 12:10:38;;;;;;;9.65;6.72;;;;;;;21.81;46.39;96598.66;4977465;28;20043;-72
2022/05/02 12:13:07;;;;;;;12.30;6.05;;;;;;;21.75;45.33;96599.94;4962617;28;20058;-72
2022/05/02 12:15:34;;;;;;;10.13;6.10;;;;;;;21.79;40.10;96595.44;4949383;28;20059;-74
2022/05/02 12:18:04;;;;;;;10.45;6.20;;;;;;;21.89;41.34;96595.97;4963823;28;20137;-74
2022/05/02 12:20:31;;;;;;;10.85;5.78;;;;;;;22.38;41.66;96595.88;4963894;28;20585;-72
2022/05/02 12:23:07;;;;;;;12.90;6.40;;;;;;;21.56;42.08;96594.75;4960930;28;20050;-72